Airfield :
LOGIN :

Register | Disclaimer

   EN    FR    IT 

 










Legend :    VFR   Marginal VFR   IFR   Intensive IFR   Very Intensive IFR
Visi :
Ceiling :
>= 8 km
>= 3000ft
5 to 8 km
1000 to 3000 ft
1500m to 5 km
500 to 1000 ft
800 to 1500m
200 to 500 ft
< 800m
< 200 ft
Symbols :   Thunderstorms  Fog  Heavy snow  Heavy precipitations  Wind > 20 kt
SIGMETs :     Misc.  Thunderstorms  Icing  Turbulence  Mountain Waves  Volcanic Ashes






- Airport Elevation : 140 ft


ESTL - Ljungbyhed

CURRENT METAR :
  • 162320Z AUTO 21017KT 9999 -RA FEW009/// BKN010/// 07/07 Q1007

EXPIRED METARs :
  • 162250Z AUTO 20016KT 8000 -RA BKN008/// 07/07 Q1006
  • 162220Z AUTO 20015G31KT 7000 -RA BKN008/// BKN012/// 07/07 Q1005
  • 162150Z AUTO 20017KT 9000 -RA BKN008/// BKN015/// 08/07 Q1005
  • 162120Z AUTO 20017KT 8000 -RA SCT008/// BKN011/// 08/07 Q1004
  • 162050Z AUTO 19014KT 7000 -RA SCT008/// BKN010/// 08/07 Q1004

Expired Forecast.



MET'MAP, your aeronautical weather chart ! - Copyright ORBIFLY December 2007 - Disclaimer

ORBIFLY MET'MAP TEAM :

Programming & Development : Alexandra Zaïnal
Concept & Development : Baudouin d'Aumeries
Co-Development & Prog : Marc-Olivier Méhu
Technical & hardware support : Manuel Goepfert

Contact : metmap@orbifly.com




SOURCES & CREDITS :

   NOAA